Huvudsida
METAR-TAF:

METAR-TAF

Flygplatser :

Šiauliai internationella flygplats

Šiauliai, Litauen

latitud: 55-53-38N, longitud: 023-23-42E, höjd: 135 m

Aktuellt väderrapport

Denna rapport gjordes för 37 minuter sedan, klockan 09:20 UTC
Vind 12 kt från sydväst, varierande mellan syd och väst/sydväst
Temperatur 5°C
Fuktighet 70%
Tryck 1026 hPa
Sikt 10 km eller mer
Spridda moln på en höjd av 1400 ft
Brutna moln på en höjd av 2100 ft

METAR: EYSA 200920Z 22012KT 190V250 9999 SCT014 BKN021 05/00 Q1026 R14L/19//95 GRN TEMPO FEW014 SCT019 WHT

Tid: 11:57 (09:57 UTC)

Väderprognos

Denna rapport gjordes för 1 timme och 55 minuter sedan, klockan 08:02 UTC
Prognos gäller från 20 kl. 09 UTC till 20 kl. 18 UTC
Vind 14 kt från väst/sydväst
Sikt: 9000 m
Spridda moln på en höjd av 3000 ft
Temporärt
från 20 kl. 12 UTC till 20 kl. 18 UTC
Vind 16 kt från väst/sydväst i byarna ända upp till 26 kt

TAF: EYSA 200802Z 2009/2018 24014KT 9000 SCT030 TEMPO 2012/2018 24016G26KT

Aktuella väderrapporter och prognoser från 4000 flygplatser (METAR- och TAF-rapporter).

De tillgängliga stationerna syns som gula och röda prickar på kartan.

För musen över prickarna för att se namnen på stationerna.

Klicka sedan för att få väderrapporter och prognoser.

För att ändra kartan: Klicka på de gröna knapparna med ett svart kors på för att zooma in; den gröna knappen med ett streck på för att zooma ut; eller på de gröna pilarna för angränsande kartor.


METAR-TAF: